Apuestas online para aficionados a las apuestas deportivas Usuarios online: 47   

Servicios

Hockey Hielo (1729)

Apuestas destacadas

19/09 11:30Rusia KHLKhabarovsk - Slovan BratislavaMás 4,51,95Menos 4,51,95
19/09 17:30Finlandia SM-liigaKooKoo - TapparaMás 51,96Menos 51,92
21/09 19:00Suecia AllsvenskanLeksand - TingsrydMás 51,86Menos 51,88
19/09 17:30Rusia VHLKhimik - Molot PermMás 5,52,32Menos 5,51,65
21/09 19:45Suiza National LeagueZürich - BernaMás 5,52,02Menos 5,51,85
19/09 11:30Rusia KHLKhabarovsk (-0,5)2,00 Slovan Bratislava (0,5)1,91 
19/09 17:30Finlandia SM-liigaKooKoo (0,5)1,82 Tappara (-0,5)2,05 
19/09 17:30Rusia VHLKhimik (-1,5)2,34 Molot Perm (1,5)1,61 
21/09 19:00Suecia AllsvenskanLeksand (-2)2,07 Tingsryd (2)1,71 
20/09 19:00Suecia SHLFärjestad (0)1,66 Skellefteå (0)2,23 
20/09 19:00Suecia SHLBrynäs (-1)3,40 X6,00 Frölunda (1)7,00 
21/09 19:00Suecia AllsvenskanLeksand (-2)2,48 X5,50 Tingsryd (1)6,50 
19/09 11:30Rusia KHLVladivostok (1)1,52 X3,80 Dinamo Riga (-1)6,40 
21/09 19:45Suiza National LeagueAmbri (-1)4,00 X6,25 Zug (1)7,00 
19/09 17:30Finlandia SM-liigaJyväskylä (-1)2,02 X2,43 Jukurit (1)6,40 

La tabla inferior muestra las cuotas más altas o mejor pagadas por las casas de apuestas para cada resultado posible, según el tipo de apuesta seleccionado, en los eventos más próximos de Hockey Hielo.

Tipo de apuesta
miércoles, 19 de septiembre de 2018
USA NHL Pretemporada
04:30San Jose Sharks1,65Anaheim Ducks2,15
04:30Vancouver1,80Edmonton Oilers2,00
Rusia KHL
11:30Khabarovsk Tip1,57Slovan Bratislava Tip2,50
11:30Vladivostok Tip1,91Dinamo Riga Tip1,91
Asia Liga de Hockey de Asia
12:00Free Blades Tip2,12Anyang Tip1,64
Rusia VHL
12:30Tseng Tou1,75Penza1,95
13:30Heilongjiang4,50Kazan1,18
13:30Heilongjiang5,20JHC Bars1,17
Rusia KHL
13:30Kunlun Tip3,95CSKA Moscow Tip1,30
Rusia VHL
15:30Uchaly1,72Angarsk2,02
15:30Orsk1,80Krasnoyarsk1,94
Finlandia SM-liiga
17:30Jyväskylä Tip1,30Jukurit Tip3,95
17:30SaiPa Tip1,58Ilves Tip2,45
17:30Hämeenlinna Tip1,66Ässät Tip2,23
17:30KooKoo Tip2,55Tappara Tip1,56
Rusia VHL
17:30Khimik1,40Molot Perm2,85
Rusia KHL
17:30Jokerit Tip1,55Magnitogorsk Tip2,55
Rusia VHL
18:00Zvezda Chekhov1,22Izhevsk3,75
Rusia KHL
18:30Spartak Moscú Tip1,70Chelyabinsk Tip2,20
18:30Sochi Tip2,28Ekaterinburg Tip1,66
Suiza Copa
19:45Zug Academy Tip3,80Langenthal Tip1,20

jueves, 20 de septiembre de 2018
Rusia VHL
15:00Karaganda1,90Almetyevsk1,85
17:30Sarov2,10Tyumen1,65
República Checa Extraliga
17:30Zlín Tip1,80Mountfield Tip1,97
Rusia VHL
18:00Ryazan3,35Karelia1,30
18:00Voronezh3,50Dynamo San Petersburgo1,25
Rusia KHL
18:00Cherepovets Tip1,80Dinamo Minsk Tip1,90
18:30Dynamo Moscow Tip2,95San Petersburgo Tip1,35
Suecia SHL
19:00Djurgården Tip1,40Rögle Tip3,05
19:00Luleå Tip1,45Örebro Tip2,90
19:00Linköping Tip1,67HV 71 Tip2,23
19:00Färjestad Tip1,70Skellefteå Tip2,18
19:00Brynäs Tip1,83Frölunda Tip2,00
19:00Mora Tip2,05Malmö Tip1,65
19:00Timrå Tip3,25Växjö Tip1,40
Cerrar
Loguéate para realizar apuestas
Contacto - Enlaces - Términos y Condiciones CSS válido XHTML 1.0 Strict válido